首页
METAR-TAF:

METAR-TAF

机场 :

Big Piney / Marbleton, 怀俄明州, 美国

纬度: 42-34-44N, 经度: 110-06-11W, 海拔: 2126米

当前天气观测

该预报发布于1小时和7分钟前的07:53 UTC
风速3节,风向东转东北
温度 6°C
湿度 56%
气压 1020 hPa
能見度: 16.1公里
天空无云

METAR: KBPI 270753Z AUTO 06003KT 10SM CLR 06/M02 A3013 RMK AO2 SLP115 T00561022

时间: 03:00 (09:00 UTC)

预报

该预报发布于3小时和40分钟前的05:20 UTC
预报有效从27日的 06点(UTC)到 28日的 06点(UTC)
风速6节,风向多变
能見度: 10公里
天空无云
从 27日的 1600点(UTC)
风速10节,风向南转西南
能見度: 10公里
散云层高于20000英尺
从 27日的 1900点(UTC)
风速16节,风向西南,有时为25节阵风
能見度: 10公里
散云层高于15000英尺
多云层高于25000英尺
从 28日的 0100点(UTC)
风速8节,风向西转西南
能見度: 10公里
散云层高于15000英尺
多云层高于25000英尺

TAF: KBPI 270520Z 2706/2806 VRB06KT P6SM SKC FM271600 20010KT P6SM SCT200 FM271900 23016G25KT P6SM SCT150 BKN250 FM280100 24008KT P6SM SCT150 BKN250

超过4000个机场的气象观测和天气预报(METAR&TAF报告)。

可查询的气象台以黄色和红色小点在地图上表示。

将鼠标移到小点上方,可查看气象台名称。

然后点击查看天气观测和预报。

如需切换地图:点击带黑十字的绿色按钮放大地图;点击带横线的绿色按钮缩小地图;或者点击绿色箭头查看邻近地区的地图。


METAR-TAF: